La Puebla de Almoradiel, Spain
Current Conditions -  °F | °C
As of 8:00 AM on Saturday 29 Nov 2014 (Local Time) from LEGT Reporting Station
Clear Clear  
Wind Chill: 44°   Ceiling: Unl
Heat Index: 46°   Visibility: 6mi
Dew Point: 43°   Wind: 6mph
Humidity: 87%   Direction: 20°NNE
Pressure: 29.35"   Gusts: NA
Location:  39.6°N, 3.12°W
Report Text: LEGT 290700Z 02005KT 260V040 CAVOK 08/06 Q0994
Loading
Personal Weather Stations






























Interactive Weather Map New forecast layout! Learn more

10-Day Weather Forecast

Advertisements
Track Severe Weather on mobile